createdAt,value
2018-10-15T00:01:10.456Z,100.00
2018-10-15T00:03:39.704Z,100.00
2018-10-15T00:06:08.879Z,100.00
2018-10-15T00:08:38.107Z,100.00
2018-10-15T00:11:07.304Z,100.00
2018-10-15T00:13:36.496Z,100.00
2018-10-15T00:16:06.364Z,100.00
2018-10-15T00:18:35.648Z,100.00
2018-10-15T00:21:05.019Z,100.00
2018-10-15T00:23:34.199Z,100.00
2018-10-15T00:26:03.376Z,100.00
2018-10-15T00:28:32.577Z,100.00
2018-10-15T00:31:01.752Z,100.00
2018-10-15T00:33:30.975Z,100.00
2018-10-15T00:36:00.140Z,100.00
2018-10-15T00:38:29.323Z,100.00
2018-10-15T00:40:58.500Z,100.00
2018-10-15T00:43:27.688Z,100.00
2018-10-15T00:45:56.889Z,100.00
2018-10-15T00:48:26.081Z,100.00
2018-10-15T00:50:55.269Z,100.00
2018-10-15T00:53:24.447Z,100.00
2018-10-15T00:55:53.664Z,100.00
2018-10-15T00:58:22.840Z,100.00
2018-10-15T01:00:52.023Z,100.00
2018-10-15T01:03:21.195Z,100.00
2018-10-15T01:05:50.396Z,100.00
2018-10-15T01:08:19.600Z,100.00
2018-10-15T01:10:48.787Z,100.00
2018-10-15T01:13:17.959Z,100.00
2018-10-15T01:15:47.143Z,100.00
2018-10-15T01:18:16.327Z,100.00
2018-10-15T01:20:45.515Z,100.00
2018-10-15T01:23:14.691Z,100.00
2018-10-15T01:25:43.875Z,100.00
2018-10-15T01:28:13.055Z,100.00
2018-10-15T01:30:42.244Z,100.00
2018-10-15T01:33:11.421Z,100.00
2018-10-15T01:35:40.608Z,100.00
2018-10-15T01:38:09.819Z,100.00
2018-10-15T01:40:38.994Z,100.00
2018-10-15T01:43:08.259Z,100.00
2018-10-15T01:45:37.515Z,100.00
2018-10-15T01:48:06.898Z,100.00
2018-10-15T01:50:36.120Z,100.00
2018-10-15T01:53:05.344Z,100.00
2018-10-15T01:55:34.536Z,100.00
2018-10-15T01:58:03.724Z,100.00
2018-10-15T02:00:32.907Z,100.00
2018-10-15T02:03:02.090Z,100.00
2018-10-15T02:05:31.281Z,100.00
2018-10-15T02:08:00.464Z,100.00
2018-10-15T02:10:29.659Z,100.00
2018-10-15T02:12:58.839Z,100.00
2018-10-15T02:15:28.019Z,100.00
2018-10-15T02:17:57.207Z,100.00
2018-10-15T02:20:26.396Z,100.00
2018-10-15T02:22:55.582Z,100.00
2018-10-15T02:25:24.759Z,100.00
2018-10-15T02:27:53.932Z,100.00
2018-10-15T02:30:23.134Z,100.00
2018-10-15T02:32:52.371Z,100.00
2018-10-15T02:35:21.580Z,100.00
2018-10-15T02:37:50.798Z,100.00
2018-10-15T02:40:20.003Z,100.00
2018-10-15T02:42:49.227Z,100.00
2018-10-15T02:45:18.432Z,100.00
2018-10-15T02:47:47.638Z,100.00
2018-10-15T02:50:16.849Z,100.00
2018-10-15T02:52:46.059Z,100.00
2018-10-15T02:55:15.255Z,100.00
2018-10-15T02:57:44.463Z,100.00
2018-10-15T03:00:14.446Z,100.00
2018-10-15T03:02:44.366Z,100.00
2018-10-15T03:05:13.866Z,100.00
2018-10-15T03:07:43.379Z,100.00
2018-10-15T03:10:12.587Z,100.00
2018-10-15T03:12:41.795Z,100.00
2018-10-15T03:15:11.677Z,100.00
2018-10-15T03:17:40.900Z,100.00
2018-10-15T03:20:11.345Z,100.00
2018-10-15T03:22:41.234Z,100.00
2018-10-15T03:25:11.234Z,100.00
2018-10-15T03:27:40.749Z,100.00
2018-10-15T03:30:11.180Z,100.00
2018-10-15T03:32:40.977Z,100.00
2018-10-15T03:35:11.211Z,100.00
2018-10-15T03:37:40.478Z,100.00
2018-10-15T03:40:09.682Z,100.00
2018-10-15T03:42:38.890Z,100.00
2018-10-15T03:45:08.235Z,100.00
2018-10-15T03:47:37.444Z,100.00
2018-10-15T03:50:07.271Z,100.00
2018-10-15T03:52:36.483Z,100.00
2018-10-15T03:55:05.741Z,100.00
2018-10-15T03:57:34.943Z,100.00
2018-10-15T04:00:04.166Z,100.00
2018-10-15T04:02:33.428Z,100.00
2018-10-15T04:05:02.593Z,100.00
2018-10-15T04:07:31.800Z,100.00
2018-10-15T04:10:01.020Z,100.00
2018-10-15T04:12:30.221Z,100.00
2018-10-15T04:14:59.424Z,100.00
2018-10-15T04:17:28.627Z,100.00
2018-10-15T04:19:57.840Z,100.00
2018-10-15T04:22:27.159Z,100.00
2018-10-15T04:24:56.363Z,100.00
2018-10-15T04:27:25.580Z,100.00
2018-10-15T04:29:54.794Z,100.00
2018-10-15T04:32:23.992Z,100.00
2018-10-15T04:34:53.211Z,100.00
2018-10-15T04:37:22.413Z,100.00
2018-10-15T04:39:51.631Z,100.00
2018-10-15T04:42:20.939Z,100.00
2018-10-15T04:44:50.133Z,100.00
2018-10-15T04:47:19.348Z,100.00
2018-10-15T04:49:48.612Z,100.00
2018-10-15T04:52:17.775Z,100.00
2018-10-15T04:54:46.987Z,100.00
2018-10-15T04:57:16.207Z,100.00
2018-10-15T04:59:45.399Z,100.00
2018-10-15T05:02:14.606Z,100.00
2018-10-15T05:04:43.802Z,100.00
2018-10-15T05:07:13.012Z,100.00
2018-10-15T05:09:42.263Z,100.00
2018-10-15T05:12:11.453Z,100.00
2018-10-15T05:14:40.723Z,100.00
2018-10-15T05:17:09.924Z,100.00
2018-10-15T05:19:39.132Z,100.00
2018-10-15T05:22:08.346Z,100.00
2018-10-15T05:24:37.557Z,100.00
2018-10-15T05:27:07.462Z,100.00
2018-10-15T05:29:36.662Z,100.00
2018-10-15T05:32:06.244Z,100.00
2018-10-15T05:34:35.450Z,100.00
2018-10-15T05:37:04.668Z,100.00
2018-10-15T05:39:33.867Z,100.00
2018-10-15T05:42:03.107Z,100.00
2018-10-15T05:44:32.288Z,100.00
2018-10-15T05:47:01.578Z,100.00
2018-10-15T05:49:30.739Z,100.00
2018-10-15T05:51:59.967Z,100.00
2018-10-15T05:54:29.155Z,100.00
2018-10-15T05:56:58.356Z,100.00
2018-10-15T05:59:27.608Z,100.00
2018-10-15T06:01:56.815Z,100.00
2018-10-15T06:04:26.023Z,100.00
2018-10-15T06:06:55.228Z,100.00
2018-10-15T06:09:24.437Z,100.00
2018-10-15T06:11:53.607Z,100.00
2018-10-15T06:14:22.850Z,100.00
2018-10-15T06:16:51.978Z,100.00
2018-10-15T06:19:21.162Z,100.00
2018-10-15T06:21:50.343Z,100.00
2018-10-15T06:24:19.553Z,100.00
2018-10-15T06:26:48.703Z,100.00
2018-10-15T06:29:17.875Z,100.00
2018-10-15T06:31:47.047Z,100.00
2018-10-15T06:34:16.239Z,100.00
2018-10-15T06:36:45.407Z,100.00
2018-10-15T06:39:14.621Z,100.00
2018-10-15T06:41:43.766Z,100.00
2018-10-15T06:44:12.947Z,100.00
2018-10-15T06:46:42.164Z,100.00
2018-10-15T06:49:11.391Z,100.00
2018-10-15T06:51:40.518Z,100.00
2018-10-15T06:54:09.735Z,100.00
2018-10-15T06:56:38.909Z,100.00
2018-10-15T06:59:08.133Z,100.00
2018-10-15T07:01:37.263Z,100.00
2018-10-15T07:04:06.792Z,100.00
2018-10-15T07:06:35.905Z,100.00
2018-10-15T07:09:07.929Z,100.00
2018-10-15T07:11:37.137Z,100.00
2018-10-15T07:14:06.396Z,100.00
2018-10-15T07:16:35.560Z,100.00
2018-10-15T07:19:04.783Z,100.00
2018-10-15T07:21:33.995Z,100.00
2018-10-15T07:24:03.278Z,100.00
2018-10-15T07:26:32.431Z,100.00
2018-10-15T07:29:01.640Z,100.00
2018-10-15T07:31:30.847Z,100.00
2018-10-15T07:34:00.128Z,100.00
2018-10-15T07:36:29.288Z,100.00
2018-10-15T07:38:58.500Z,100.00
2018-10-15T07:41:27.707Z,100.00
2018-10-15T07:43:56.931Z,100.00
2018-10-15T07:46:26.381Z,100.00
2018-10-15T07:48:55.440Z,100.00
2018-10-15T07:51:24.656Z,100.00
2018-10-15T07:53:53.867Z,100.00
2018-10-15T07:56:23.145Z,100.00
2018-10-15T07:58:52.328Z,100.00
2018-10-15T08:01:21.557Z,100.00
2018-10-15T08:03:50.768Z,100.00
2018-10-15T08:06:19.993Z,100.00
2018-10-15T08:08:49.234Z,100.00
2018-10-15T08:11:18.379Z,100.00
2018-10-15T08:13:47.559Z,100.00
2018-10-15T08:16:16.811Z,100.00
2018-10-15T08:18:45.938Z,100.00
2018-10-15T08:21:15.190Z,100.00
2018-10-15T08:23:44.304Z,100.00
2018-10-15T08:26:13.555Z,100.00
2018-10-15T08:28:42.671Z,100.00
2018-10-15T08:31:11.859Z,100.00
2018-10-15T08:33:41.039Z,100.00
2018-10-15T08:36:10.230Z,100.00
2018-10-15T08:38:39.407Z,100.00
2018-10-15T08:41:08.605Z,100.00
2018-10-15T08:43:37.831Z,100.00
2018-10-15T08:46:07.536Z,100.00
2018-10-15T08:48:36.739Z,100.00
2018-10-15T08:51:06.802Z,100.00
2018-10-15T08:53:35.949Z,100.00
2018-10-15T08:56:05.365Z,100.00
2018-10-15T08:58:34.426Z,100.00
2018-10-15T09:01:03.631Z,100.00
2018-10-15T09:03:32.785Z,100.00
2018-10-15T09:06:01.970Z,100.00
2018-10-15T09:08:31.227Z,100.00
2018-10-15T09:11:00.473Z,100.00
2018-10-15T09:13:29.607Z,100.00
2018-10-15T09:15:58.883Z,100.00
2018-10-15T09:18:28.028Z,100.00
2018-10-15T09:20:57.296Z,100.00
2018-10-15T09:23:26.460Z,100.00
2018-10-15T09:25:55.679Z,100.00
2018-10-15T09:28:24.882Z,100.00
2018-10-15T09:30:54.170Z,100.00
2018-10-15T09:33:23.323Z,100.00
2018-10-15T09:35:52.507Z,100.00
2018-10-15T09:38:21.783Z,100.00
2018-10-15T09:40:50.980Z,100.00
2018-10-15T09:43:20.151Z,100.00
2018-10-15T09:45:49.462Z,100.00
2018-10-15T09:48:18.572Z,100.00
2018-10-15T09:50:47.795Z,100.00
2018-10-15T09:53:17.029Z,100.00
2018-10-15T09:55:46.187Z,100.00
2018-10-15T09:58:15.391Z,100.00
2018-10-15T10:00:54.738Z,100.00
2018-10-15T10:03:23.928Z,100.00
2018-10-15T10:05:53.190Z,100.00
2018-10-15T10:08:22.363Z,100.00
2018-10-15T10:10:51.591Z,100.00
2018-10-15T10:13:20.761Z,100.00
2018-10-15T10:15:49.941Z,100.00
2018-10-15T10:18:19.226Z,100.00
2018-10-15T10:20:48.345Z,100.00
2018-10-15T10:23:17.508Z,100.00
2018-10-15T10:25:46.712Z,100.00
2018-10-15T10:28:15.947Z,100.00
2018-10-15T10:30:45.072Z,100.00
2018-10-15T10:33:14.228Z,100.00
2018-10-15T10:35:56.016Z,100.00
2018-10-15T10:38:45.991Z,100.00
2018-10-15T10:41:15.183Z,100.00
2018-10-15T10:43:44.362Z,100.00
2018-10-15T10:46:13.600Z,100.00
2018-10-15T10:48:42.780Z,100.00
2018-10-15T10:51:12.039Z,100.00
2018-10-15T10:53:41.320Z,100.00
2018-10-15T10:56:10.616Z,100.00
2018-10-15T10:58:39.864Z,100.00
2018-10-15T11:01:09.487Z,100.00
2018-10-15T11:03:39.286Z,100.00
2018-10-15T11:06:08.471Z,100.00
2018-10-15T11:08:37.717Z,100.00
2018-10-15T11:11:07.096Z,100.00
2018-10-15T11:13:36.292Z,100.00
2018-10-15T11:16:05.806Z,96.81
2018-10-15T11:18:35.051Z,92.40
2018-10-15T11:21:04.351Z,88.72
2018-10-15T11:23:33.432Z,86.25
2018-10-15T11:26:02.619Z,87.45
2018-10-15T11:28:31.775Z,88.61
2018-10-15T11:31:00.957Z,78.34
2018-10-15T11:33:30.218Z,78.03
2018-10-15T11:35:59.396Z,76.69
2018-10-15T11:38:28.559Z,82.87
2018-10-15T11:40:57.742Z,81.81
2018-10-15T11:43:26.991Z,73.79
2018-10-15T11:45:56.100Z,75.75
2018-10-15T11:48:25.263Z,69.43
2018-10-15T11:50:54.447Z,73.42
2018-10-15T11:53:23.623Z,73.61
2018-10-15T11:55:52.821Z,72.36
2018-10-15T11:58:22.028Z,69.17
2018-10-15T12:00:51.194Z,70.10
2018-10-15T12:03:20.366Z,71.08
2018-10-15T12:05:49.543Z,71.44
2018-10-15T12:08:18.732Z,72.23
2018-10-15T12:10:47.958Z,68.12
2018-10-15T12:13:17.151Z,63.61
2018-10-15T12:15:46.362Z,74.04
2018-10-15T12:18:15.568Z,72.49
2018-10-15T12:20:44.784Z,65.41
2018-10-15T12:23:13.977Z,62.24
2018-10-15T12:25:43.190Z,64.86
2018-10-15T12:28:12.389Z,61.51
2018-10-15T12:30:41.607Z,63.67
2018-10-15T12:33:10.807Z,56.49
2018-10-15T12:35:40.037Z,56.45
2018-10-15T12:38:09.240Z,54.98
2018-10-15T12:40:38.447Z,56.36
2018-10-15T12:43:07.645Z,56.49
2018-10-15T12:45:41.939Z,57.34
2018-10-15T12:48:11.154Z,52.77
2018-10-15T12:50:40.351Z,54.62
2018-10-15T12:53:09.555Z,53.20
2018-10-15T12:55:38.763Z,57.62
2018-10-15T12:58:07.982Z,51.04
2018-10-15T13:00:37.187Z,52.13
2018-10-15T13:03:06.933Z,54.19
2018-10-15T13:05:36.145Z,52.26
2018-10-15T13:08:05.454Z,51.91
2018-10-15T13:10:34.647Z,48.21
2018-10-15T13:13:03.859Z,52.11
2018-10-15T13:15:33.067Z,52.16
2018-10-15T13:18:02.263Z,49.29
2018-10-15T13:20:31.455Z,47.62
2018-10-15T13:23:00.671Z,49.32
2018-10-15T13:25:29.859Z,47.19
2018-10-15T13:27:59.070Z,45.14
2018-10-15T13:30:28.309Z,44.53
2018-10-15T13:32:57.614Z,45.43
2018-10-15T13:35:26.784Z,44.71
2018-10-15T13:37:55.983Z,44.26
2018-10-15T13:40:25.180Z,42.53
2018-10-15T13:42:54.400Z,43.09
2018-10-15T13:45:23.602Z,42.62
2018-10-15T13:47:52.809Z,44.38
2018-10-15T13:50:21.999Z,40.83
2018-10-15T13:52:51.289Z,43.02
2018-10-15T13:55:20.459Z,40.83
2018-10-15T13:57:49.655Z,40.70
2018-10-15T14:00:32.027Z,41.27
2018-10-15T14:03:01.259Z,42.13
2018-10-15T14:05:30.455Z,43.27
2018-10-15T14:07:59.655Z,43.82
2018-10-15T14:10:28.835Z,40.99
2018-10-15T14:12:58.049Z,42.76
2018-10-15T14:15:27.214Z,40.91
2018-10-15T14:17:56.440Z,43.58
2018-10-15T14:20:25.683Z,39.43
2018-10-15T14:22:54.863Z,42.94
2018-10-15T14:25:24.031Z,40.69
2018-10-15T14:27:53.199Z,38.89
2018-10-15T14:30:22.372Z,37.45
2018-10-15T14:32:51.548Z,39.16
2018-10-15T14:35:20.727Z,42.34
2018-10-15T14:37:49.903Z,41.47
2018-10-15T14:40:20.264Z,40.84
2018-10-15T14:42:49.444Z,40.23
2018-10-15T14:45:18.976Z,41.12
2018-10-15T14:47:48.151Z,42.23
2018-10-15T14:50:19.632Z,42.31
2018-10-15T14:52:51.883Z,44.45
2018-10-15T14:55:21.395Z,45.70
2018-10-15T14:57:50.577Z,45.09
2018-10-15T15:00:19.990Z,46.24
2018-10-15T15:02:49.196Z,49.32
2018-10-15T15:05:18.375Z,45.81
2018-10-15T15:07:47.633Z,45.70
2018-10-15T15:10:33.803Z,44.14
2018-10-15T15:13:20.208Z,46.10
2018-10-15T15:15:49.348Z,45.09
2018-10-15T15:18:18.527Z,47.83
2018-10-15T15:20:47.707Z,46.50
2018-10-15T15:23:16.872Z,48.83
2018-10-15T15:25:46.061Z,54.75
2018-10-15T15:28:15.240Z,65.26
2018-10-15T15:30:44.444Z,72.57
2018-10-15T15:33:13.619Z,77.91
2018-10-15T15:35:42.794Z,81.73
2018-10-15T15:38:12.792Z,87.10
2018-10-15T15:40:41.974Z,92.62
2018-10-15T15:43:11.150Z,97.61
2018-10-15T15:45:40.469Z,100.00
2018-10-15T15:48:09.539Z,100.00
2018-10-15T15:50:38.707Z,100.00
2018-10-15T15:53:07.908Z,100.00
2018-10-15T15:55:37.095Z,100.00
2018-10-15T15:58:06.906Z,100.00
2018-10-15T16:00:36.070Z,100.00
2018-10-15T16:03:06.107Z,100.00
2018-10-15T16:05:35.279Z,100.00
2018-10-15T16:08:04.483Z,100.00
2018-10-15T16:10:33.723Z,100.00
2018-10-15T16:13:02.899Z,100.00
2018-10-15T16:15:32.079Z,100.00
2018-10-15T16:18:01.271Z,100.00
2018-10-15T16:20:30.443Z,100.00
2018-10-15T16:22:59.632Z,100.00
2018-10-15T16:25:28.807Z,100.00
2018-10-15T16:27:57.998Z,100.00
2018-10-15T16:30:27.161Z,100.00
2018-10-15T16:32:56.353Z,100.00
2018-10-15T16:35:25.528Z,100.00
2018-10-15T16:37:54.707Z,100.00
2018-10-15T16:40:23.884Z,100.00
2018-10-15T16:42:53.070Z,100.00
2018-10-15T16:45:22.303Z,100.00
2018-10-15T16:47:51.422Z,100.00
2018-10-15T16:50:20.595Z,100.00
2018-10-15T16:52:49.790Z,100.00
2018-10-15T16:55:18.979Z,100.00
2018-10-15T16:57:48.169Z,100.00
2018-10-15T17:00:17.391Z,100.00
2018-10-15T17:02:46.644Z,100.00
2018-10-15T17:05:15.924Z,100.00
2018-10-15T17:07:45.144Z,100.00
2018-10-15T17:10:15.262Z,100.00
2018-10-15T17:12:44.449Z,100.00
2018-10-15T17:15:14.866Z,100.00
2018-10-15T17:17:44.289Z,100.00
2018-10-15T17:20:13.520Z,100.00
2018-10-15T17:22:43.515Z,100.00
2018-10-15T17:25:12.991Z,100.00
2018-10-15T17:27:42.919Z,100.00
2018-10-15T17:30:13.120Z,100.00
2018-10-15T17:32:43.426Z,100.00
2018-10-15T17:35:12.664Z,100.00
2018-10-15T17:37:42.318Z,100.00
2018-10-15T17:40:12.979Z,100.00
2018-10-15T17:42:42.266Z,100.00
2018-10-15T17:45:14.234Z,100.00
2018-10-15T17:47:44.451Z,100.00
2018-10-15T17:50:13.640Z,100.00
2018-10-15T17:52:42.845Z,100.00
2018-10-15T17:55:13.175Z,100.00
2018-10-15T17:57:42.355Z,100.00
2018-10-15T18:00:18.548Z,100.00
2018-10-15T18:02:47.744Z,100.00
2018-10-15T18:05:16.923Z,100.00
2018-10-15T18:07:46.108Z,100.00
2018-10-15T18:10:15.350Z,100.00
2018-10-15T18:12:44.829Z,100.00
2018-10-15T18:15:14.048Z,100.00
2018-10-15T18:17:43.251Z,100.00
2018-10-15T18:20:12.484Z,100.00
2018-10-15T18:22:41.738Z,100.00
2018-10-15T18:25:11.540Z,100.00
2018-10-15T18:27:41.035Z,100.00
2018-10-15T18:30:11.971Z,100.00
2018-10-15T18:32:42.090Z,100.00
2018-10-15T18:35:11.496Z,100.00
2018-10-15T18:37:40.753Z,100.00
2018-10-15T18:40:10.267Z,100.00
2018-10-15T18:42:39.712Z,100.00
2018-10-15T18:45:09.283Z,100.00
2018-10-15T18:47:39.023Z,100.00
2018-10-15T18:50:11.375Z,100.00
2018-10-15T18:52:40.623Z,100.00
2018-10-15T18:55:09.996Z,100.00
2018-10-15T18:57:39.380Z,100.00
2018-10-15T19:00:11.175Z,100.00
2018-10-15T19:02:40.443Z,100.00
2018-10-15T19:05:09.647Z,100.00
2018-10-15T19:07:38.868Z,100.00
2018-10-15T19:10:09.376Z,100.00
2018-10-15T19:12:38.987Z,100.00
2018-10-15T19:15:09.840Z,100.00
2018-10-15T19:17:39.532Z,100.00
2018-10-15T19:20:10.868Z,100.00
2018-10-15T19:22:40.087Z,100.00
2018-10-15T19:25:09.471Z,100.00
2018-10-15T19:27:38.990Z,100.00
2018-10-15T19:30:11.102Z,100.00
2018-10-15T19:32:40.380Z,100.00
2018-10-15T19:35:10.266Z,100.00
2018-10-15T19:37:39.726Z,100.00
2018-10-15T19:40:08.935Z,100.00
2018-10-15T19:42:38.200Z,100.00
2018-10-15T19:45:07.622Z,100.00
2018-10-15T19:47:36.840Z,100.00
2018-10-15T19:50:07.932Z,100.00
2018-10-15T19:52:37.193Z,100.00
2018-10-15T19:55:07.434Z,100.00
2018-10-15T19:57:36.989Z,100.00
2018-10-15T20:00:10.763Z,100.00
2018-10-15T20:02:39.976Z,100.00
2018-10-15T20:05:09.635Z,100.00
2018-10-15T20:07:39.152Z,100.00
2018-10-15T20:10:11.594Z,100.00
2018-10-15T20:12:41.759Z,100.00
2018-10-15T20:15:11.801Z,100.00
2018-10-15T20:17:41.474Z,100.00
2018-10-15T20:20:11.471Z,100.00
2018-10-15T20:22:40.723Z,100.00
2018-10-15T20:25:11.501Z,100.00
2018-10-15T20:27:41.127Z,100.00
2018-10-15T20:30:11.578Z,100.00
2018-10-15T20:32:40.836Z,100.00
2018-10-15T20:35:11.339Z,100.00
2018-10-15T20:37:40.570Z,100.00
2018-10-15T20:40:10.703Z,100.00
2018-10-15T20:42:40.080Z,100.00
2018-10-15T20:45:09.378Z,100.00
2018-10-15T20:47:38.908Z,100.00
2018-10-15T20:50:09.136Z,100.00
2018-10-15T20:52:39.082Z,100.00
2018-10-15T20:55:09.318Z,100.00
2018-10-15T20:57:38.832Z,100.00
2018-10-15T21:00:09.739Z,100.00
2018-10-15T21:02:39.305Z,100.00
2018-10-15T21:05:08.937Z,100.00
2018-10-15T21:07:38.440Z,100.00
2018-10-15T21:10:07.756Z,100.00
2018-10-15T21:12:36.972Z,100.00
2018-10-15T21:15:07.319Z,100.00
2018-10-15T21:17:36.631Z,100.00
2018-10-15T21:20:06.512Z,100.00
2018-10-15T21:22:35.843Z,100.00
2018-10-15T21:25:05.427Z,100.00
2018-10-15T21:27:34.663Z,100.00
2018-10-15T21:30:03.965Z,100.00
2018-10-15T21:32:33.267Z,100.00
2018-10-15T21:35:02.555Z,100.00
2018-10-15T21:37:31.775Z,100.00
2018-10-15T21:40:01.041Z,100.00
2018-10-15T21:42:30.345Z,100.00
2018-10-15T21:44:59.643Z,100.00
2018-10-15T21:47:28.891Z,100.00
2018-10-15T21:49:58.098Z,100.00
2018-10-15T21:52:27.351Z,100.00
2018-10-15T21:54:56.699Z,100.00
2018-10-15T21:57:26.037Z,100.00
2018-10-15T21:59:55.320Z,100.00
2018-10-15T22:02:24.583Z,100.00
2018-10-15T22:04:53.901Z,100.00
2018-10-15T22:07:23.167Z,100.00
2018-10-15T22:09:56.557Z,100.00
2018-10-15T22:12:25.751Z,100.00
2018-10-15T22:14:54.934Z,100.00
2018-10-15T22:17:24.228Z,100.00
2018-10-15T22:19:53.427Z,100.00
2018-10-15T22:22:22.742Z,100.00
2018-10-15T22:24:51.972Z,100.00
2018-10-15T22:27:21.173Z,100.00
2018-10-15T22:29:50.397Z,100.00
2018-10-15T22:32:19.559Z,100.00
2018-10-15T22:34:48.751Z,100.00
2018-10-15T22:37:18.020Z,100.00
2018-10-15T22:39:47.226Z,100.00
2018-10-15T22:42:16.426Z,100.00
2018-10-15T22:44:45.653Z,100.00
2018-10-15T22:47:14.883Z,100.00
2018-10-15T22:49:44.182Z,100.00
2018-10-15T22:52:13.675Z,100.00
2018-10-15T22:54:43.009Z,100.00
2018-10-15T22:57:12.852Z,100.00
2018-10-15T22:59:42.156Z,100.00
2018-10-15T23:02:11.656Z,100.00
2018-10-15T23:04:40.883Z,100.00
2018-10-15T23:07:10.292Z,100.00
2018-10-15T23:09:39.581Z,100.00
2018-10-15T23:12:08.774Z,100.00
2018-10-15T23:14:38.016Z,100.00
2018-10-15T23:17:07.301Z,100.00
2018-10-15T23:19:36.559Z,100.00
2018-10-15T23:22:06.398Z,100.00
2018-10-15T23:24:35.630Z,100.00
2018-10-15T23:27:04.941Z,100.00
2018-10-15T23:29:34.207Z,100.00
2018-10-15T23:32:03.498Z,100.00
2018-10-15T23:34:32.721Z,100.00
2018-10-15T23:37:01.996Z,100.00
2018-10-15T23:39:31.232Z,100.00
2018-10-15T23:42:00.540Z,100.00
2018-10-15T23:44:29.824Z,100.00
2018-10-15T23:46:59.764Z,100.00
2018-10-15T23:49:29.018Z,100.00
2018-10-15T23:51:58.332Z,100.00
2018-10-15T23:54:27.596Z,100.00
2018-10-15T23:56:56.888Z,100.00
2018-10-15T23:59:26.360Z,100.00
